createdAt,value
2022-12-17T00:00:07.000Z,-3.76
2022-12-17T00:01:07.000Z,-3.70
2022-12-17T00:02:07.000Z,-3.69
2022-12-17T00:03:07.000Z,-3.72
2022-12-17T00:04:07.000Z,-3.76
2022-12-17T00:05:07.000Z,-3.72
2022-12-17T00:06:07.000Z,-3.72
2022-12-17T00:07:07.000Z,-3.77
2022-12-17T00:08:07.000Z,-3.76
2022-12-17T00:09:07.000Z,-3.70
2022-12-17T00:10:07.000Z,-3.76
2022-12-17T00:11:07.000Z,-3.69
2022-12-17T00:12:07.000Z,-3.70
2022-12-17T00:13:07.000Z,-3.70
2022-12-17T00:14:07.000Z,-3.72
2022-12-17T00:15:07.000Z,-3.76
2022-12-17T00:16:07.000Z,-3.70
2022-12-17T00:17:07.000Z,-3.70
2022-12-17T00:18:07.000Z,-3.79
2022-12-17T00:19:07.000Z,-3.74
2022-12-17T00:20:07.000Z,-3.76
2022-12-17T00:21:07.000Z,-3.80
2022-12-17T00:22:07.000Z,-3.79
2022-12-17T00:23:07.000Z,-3.81
2022-12-17T00:24:07.000Z,-3.79
2022-12-17T00:25:07.000Z,-3.80
2022-12-17T00:26:07.000Z,-3.84
2022-12-17T00:27:07.000Z,-3.83
2022-12-17T00:28:07.000Z,-3.81
2022-12-17T00:29:07.000Z,-3.84
2022-12-17T00:30:07.000Z,-3.91
2022-12-17T00:31:07.000Z,-3.86
2022-12-17T00:32:07.000Z,-3.88
2022-12-17T00:33:07.000Z,-3.92
2022-12-17T00:34:07.000Z,-3.88
2022-12-17T00:35:07.000Z,-3.94
2022-12-17T00:36:07.000Z,-3.92
2022-12-17T00:37:07.000Z,-3.94
2022-12-17T00:38:07.000Z,-3.91
2022-12-17T00:39:07.000Z,-3.89
2022-12-17T00:40:07.000Z,-3.94
2022-12-17T00:41:07.000Z,-3.92
2022-12-17T00:42:07.000Z,-3.89
2022-12-17T00:43:07.000Z,-3.88
2022-12-17T00:44:07.000Z,-3.91
2022-12-17T00:45:07.000Z,-3.94
2022-12-17T00:46:07.000Z,-3.94
2022-12-17T00:47:07.000Z,-3.94
2022-12-17T00:48:07.000Z,-3.86
2022-12-17T00:49:07.000Z,-3.89
2022-12-17T00:50:07.000Z,-3.95
2022-12-17T00:51:07.000Z,-3.89
2022-12-17T00:52:07.000Z,-3.97
2022-12-17T00:53:07.000Z,-3.91
2022-12-17T00:54:07.000Z,-3.92
2022-12-17T00:55:07.000Z,-3.95
2022-12-17T00:56:07.000Z,-4.01
2022-12-17T00:57:07.000Z,-3.99
2022-12-17T00:58:06.000Z,-4.01
2022-12-17T00:59:06.000Z,-3.98
2022-12-17T01:00:06.000Z,-3.99
2022-12-17T01:01:06.000Z,-3.99
2022-12-17T01:02:06.000Z,-3.99
2022-12-17T01:03:06.000Z,-4.01
2022-12-17T01:04:06.000Z,-3.95
2022-12-17T01:05:06.000Z,-3.99
2022-12-17T01:06:06.000Z,-3.95
2022-12-17T01:07:06.000Z,-3.95
2022-12-17T01:08:06.000Z,-3.98
2022-12-17T01:09:06.000Z,-4.01
2022-12-17T01:10:06.000Z,-4.01
2022-12-17T01:11:06.000Z,-3.98
2022-12-17T01:12:06.000Z,-3.98
2022-12-17T01:13:06.000Z,-3.97
2022-12-17T01:14:06.000Z,-3.99
2022-12-17T01:15:06.000Z,-3.95
2022-12-17T01:16:06.000Z,-3.94
2022-12-17T01:17:06.000Z,-3.95
2022-12-17T01:18:06.000Z,-3.94
2022-12-17T01:19:06.000Z,-3.94
2022-12-17T01:20:06.000Z,-3.98
2022-12-17T01:21:06.000Z,-3.94
2022-12-17T01:22:06.000Z,-3.94
2022-12-17T01:23:06.000Z,-3.94
2022-12-17T01:24:06.000Z,-3.94
2022-12-17T01:25:06.000Z,-3.92
2022-12-17T01:26:06.000Z,-3.92
2022-12-17T01:27:06.000Z,-3.86
2022-12-17T01:28:06.000Z,-3.86
2022-12-17T01:29:06.000Z,-3.84
2022-12-17T01:30:06.000Z,-3.83
2022-12-17T01:31:06.000Z,-3.86
2022-12-17T01:32:06.000Z,-3.80
2022-12-17T01:33:06.000Z,-3.80
2022-12-17T01:34:06.000Z,-3.76
2022-12-17T01:35:06.000Z,-3.80
2022-12-17T01:36:06.000Z,-3.79
2022-12-17T01:37:06.000Z,-3.70
2022-12-17T01:38:06.000Z,-3.76
2022-12-17T01:39:06.000Z,-3.70
2022-12-17T01:40:06.000Z,-3.74
2022-12-17T01:41:06.000Z,-3.69
2022-12-17T01:42:06.000Z,-3.74
2022-12-17T01:43:06.000Z,-3.72
2022-12-17T01:44:06.000Z,-3.74
2022-12-17T01:45:06.000Z,-3.76
2022-12-17T01:46:06.000Z,-3.70
2022-12-17T01:47:06.000Z,-3.77
2022-12-17T01:48:06.000Z,-3.74
2022-12-17T01:49:06.000Z,-3.76
2022-12-17T01:50:06.000Z,-3.76
2022-12-17T01:51:06.000Z,-3.77
2022-12-17T01:52:06.000Z,-3.77
2022-12-17T01:53:06.000Z,-3.77
2022-12-17T01:54:06.000Z,-3.74
2022-12-17T01:55:06.000Z,-3.77
2022-12-17T01:56:06.000Z,-3.74
2022-12-17T01:57:06.000Z,-3.79
2022-12-17T01:58:06.000Z,-3.76
2022-12-17T01:59:06.000Z,-3.76
2022-12-17T02:00:06.000Z,-3.74
2022-12-17T02:01:06.000Z,-3.72
2022-12-17T02:02:06.000Z,-3.72
2022-12-17T02:03:06.000Z,-3.72
2022-12-17T02:04:06.000Z,-3.70
2022-12-17T02:05:06.000Z,-3.74
2022-12-17T02:06:06.000Z,-3.72
2022-12-17T02:07:06.000Z,-3.72
2022-12-17T02:08:06.000Z,-3.68
2022-12-17T02:09:06.000Z,-3.70
2022-12-17T02:10:06.000Z,-3.68
2022-12-17T02:11:06.000Z,-3.69
2022-12-17T02:12:06.000Z,-3.61
2022-12-17T02:13:06.000Z,-3.64
2022-12-17T02:14:06.000Z,-3.65
2022-12-17T02:15:06.000Z,-3.62
2022-12-17T02:16:06.000Z,-3.62
2022-12-17T02:17:06.000Z,-3.59
2022-12-17T02:18:06.000Z,-3.64
2022-12-17T02:19:06.000Z,-3.61
2022-12-17T02:20:06.000Z,-3.59
2022-12-17T02:21:06.000Z,-3.57
2022-12-17T02:22:06.000Z,-3.55
2022-12-17T02:23:06.000Z,-3.55
2022-12-17T02:24:06.000Z,-3.55
2022-12-17T02:25:06.000Z,-3.59
2022-12-17T02:26:06.000Z,-3.57
2022-12-17T02:27:06.000Z,-3.52
2022-12-17T02:28:06.000Z,-3.52
2022-12-17T02:29:06.000Z,-3.52
2022-12-17T02:30:06.000Z,-3.54
2022-12-17T02:31:06.000Z,-3.52
2022-12-17T02:32:06.000Z,-3.51
2022-12-17T02:33:06.000Z,-3.51
2022-12-17T02:34:06.000Z,-3.51
2022-12-17T02:35:06.000Z,-3.51
2022-12-17T02:36:06.000Z,-3.51
2022-12-17T02:37:06.000Z,-3.51
2022-12-17T02:38:06.000Z,-3.51
2022-12-17T02:39:06.000Z,-3.47
2022-12-17T02:40:06.000Z,-3.47
2022-12-17T02:41:06.000Z,-3.46
2022-12-17T02:42:06.000Z,-3.46
2022-12-17T02:43:06.000Z,-3.43
2022-12-17T02:44:06.000Z,-3.46
2022-12-17T02:45:06.000Z,-3.47
2022-12-17T02:46:06.000Z,-3.47
2022-12-17T02:47:06.000Z,-3.47
2022-12-17T02:48:06.000Z,-3.47
2022-12-17T02:49:06.000Z,-3.41
2022-12-17T02:50:06.000Z,-3.47
2022-12-17T02:51:06.000Z,-3.44
2022-12-17T02:52:06.000Z,-3.43
2022-12-17T02:53:05.000Z,-3.47
2022-12-17T02:54:05.000Z,-3.49
2022-12-17T02:55:05.000Z,-3.51
2022-12-17T02:56:05.000Z,-3.49
2022-12-17T02:57:05.000Z,-3.57
2022-12-17T02:58:05.000Z,-3.54
2022-12-17T02:59:05.000Z,-3.58
2022-12-17T03:00:05.000Z,-3.57
2022-12-17T03:01:05.000Z,-3.55
2022-12-17T03:02:05.000Z,-3.61
2022-12-17T03:03:05.000Z,-3.62
2022-12-17T03:04:05.000Z,-3.62
2022-12-17T03:05:05.000Z,-3.62
2022-12-17T03:06:05.000Z,-3.64
2022-12-17T03:07:05.000Z,-3.62
2022-12-17T03:08:05.000Z,-3.64
2022-12-17T03:09:05.000Z,-3.65
2022-12-17T03:10:05.000Z,-3.62
2022-12-17T03:11:05.000Z,-3.64
2022-12-17T03:12:05.000Z,-3.69
2022-12-17T03:13:05.000Z,-3.70
2022-12-17T03:14:05.000Z,-3.74
2022-12-17T03:15:05.000Z,-3.76
2022-12-17T03:16:05.000Z,-3.77
2022-12-17T03:17:05.000Z,-3.74
2022-12-17T03:18:05.000Z,-3.79
2022-12-17T03:19:05.000Z,-3.77
2022-12-17T03:20:05.000Z,-3.79
2022-12-17T03:21:05.000Z,-3.81
2022-12-17T03:22:05.000Z,-3.86
2022-12-17T03:23:05.000Z,-3.86
2022-12-17T03:24:05.000Z,-3.88
2022-12-17T03:25:05.000Z,-3.88
2022-12-17T03:26:05.000Z,-3.91
2022-12-17T03:27:05.000Z,-3.92
2022-12-17T03:28:05.000Z,-3.97
2022-12-17T03:29:05.000Z,-3.98
2022-12-17T03:30:05.000Z,-3.98
2022-12-17T03:31:05.000Z,-3.99
2022-12-17T03:32:05.000Z,-4.09
2022-12-17T03:33:05.000Z,-4.09
2022-12-17T03:34:05.000Z,-4.07
2022-12-17T03:35:05.000Z,-4.09
2022-12-17T03:36:05.000Z,-4.12
2022-12-17T03:37:05.000Z,-4.12
2022-12-17T03:38:05.000Z,-4.13
2022-12-17T03:39:05.000Z,-4.12
2022-12-17T03:40:05.000Z,-4.16
2022-12-17T03:41:05.000Z,-4.19
2022-12-17T03:42:05.000Z,-4.17
2022-12-17T03:43:05.000Z,-4.20
2022-12-17T03:44:05.000Z,-4.22
2022-12-17T03:45:05.000Z,-4.17
2022-12-17T03:46:05.000Z,-4.19
2022-12-17T03:47:05.000Z,-4.23
2022-12-17T03:48:05.000Z,-4.26
2022-12-17T03:49:05.000Z,-4.23
2022-12-17T03:50:05.000Z,-4.31
2022-12-17T03:51:05.000Z,-4.27
2022-12-17T03:52:05.000Z,-4.33
2022-12-17T03:53:05.000Z,-4.36
2022-12-17T03:54:05.000Z,-4.36
2022-12-17T03:55:05.000Z,-4.37
2022-12-17T03:56:05.000Z,-4.46
2022-12-17T03:57:05.000Z,-4.45
2022-12-17T03:58:05.000Z,-4.49
2022-12-17T03:59:05.000Z,-4.58
2022-12-17T04:00:05.000Z,-4.62
2022-12-17T04:01:05.000Z,-4.65
2022-12-17T04:02:05.000Z,-4.73
2022-12-17T04:03:05.000Z,-4.76
2022-12-17T04:04:05.000Z,-4.84
2022-12-17T04:05:05.000Z,-4.84
2022-12-17T04:06:05.000Z,-4.87
2022-12-17T04:07:05.000Z,-4.97
2022-12-17T04:08:05.000Z,-4.95
2022-12-17T04:09:05.000Z,-5.02
2022-12-17T04:10:05.000Z,-5.05
2022-12-17T04:11:05.000Z,-5.06
2022-12-17T04:12:05.000Z,-5.06
2022-12-17T04:13:05.000Z,-5.12
2022-12-17T04:14:05.000Z,-5.12
2022-12-17T04:15:05.000Z,-5.16
2022-12-17T04:16:05.000Z,-5.21
2022-12-17T04:17:05.000Z,-5.24
2022-12-17T04:18:05.000Z,-5.21
2022-12-17T04:19:05.000Z,-5.20
2022-12-17T04:20:05.000Z,-5.23
2022-12-17T04:21:05.000Z,-5.25
2022-12-17T04:22:05.000Z,-5.25
2022-12-17T04:23:05.000Z,-5.23
2022-12-17T04:24:05.000Z,-5.25
2022-12-17T04:25:05.000Z,-5.21
2022-12-17T04:26:05.000Z,-5.23
2022-12-17T04:27:05.000Z,-5.23
2022-12-17T04:28:05.000Z,-5.24
2022-12-17T04:29:05.000Z,-5.20
2022-12-17T04:30:05.000Z,-5.23
2022-12-17T04:31:05.000Z,-5.23
2022-12-17T04:32:05.000Z,-5.23
2022-12-17T04:33:05.000Z,-5.20
2022-12-17T04:34:05.000Z,-5.16
2022-12-17T04:35:05.000Z,-5.20
2022-12-17T04:36:05.000Z,-5.16
2022-12-17T04:37:05.000Z,-5.17
2022-12-17T04:38:05.000Z,-5.17
2022-12-17T04:39:05.000Z,-5.17
2022-12-17T04:40:05.000Z,-5.12
2022-12-17T04:41:05.000Z,-5.11
2022-12-17T04:42:05.000Z,-5.06
2022-12-17T04:43:05.000Z,-5.09
2022-12-17T04:44:05.000Z,-5.06
2022-12-17T04:45:05.000Z,-5.03
2022-12-17T04:46:05.000Z,-5.01
2022-12-17T04:47:05.000Z,-5.02
2022-12-17T04:48:04.000Z,-4.95
2022-12-17T04:49:04.000Z,-4.94
2022-12-17T04:50:04.000Z,-4.91
2022-12-17T04:51:04.000Z,-4.90
2022-12-17T04:52:04.000Z,-4.88
2022-12-17T04:53:04.000Z,-4.90
2022-12-17T04:54:04.000Z,-4.83
2022-12-17T04:55:04.000Z,-4.79
2022-12-17T04:56:04.000Z,-4.76
2022-12-17T04:57:04.000Z,-4.74
2022-12-17T04:58:04.000Z,-4.74
2022-12-17T04:59:04.000Z,-4.72
2022-12-17T05:00:04.000Z,-4.72
2022-12-17T05:01:04.000Z,-4.69
2022-12-17T05:02:04.000Z,-4.69
2022-12-17T05:03:04.000Z,-4.67
2022-12-17T05:04:04.000Z,-4.70
2022-12-17T05:05:04.000Z,-4.72
2022-12-17T05:06:04.000Z,-4.70
2022-12-17T05:07:04.000Z,-4.72
2022-12-17T05:08:04.000Z,-4.70
2022-12-17T05:09:04.000Z,-4.70
2022-12-17T05:10:04.000Z,-4.69
2022-12-17T05:11:04.000Z,-4.69
2022-12-17T05:12:04.000Z,-4.65
2022-12-17T05:13:04.000Z,-4.65
2022-12-17T05:14:04.000Z,-4.56
2022-12-17T05:15:04.000Z,-4.52
2022-12-17T05:16:04.000Z,-4.51
2022-12-17T05:17:04.000Z,-4.48
2022-12-17T05:18:04.000Z,-4.46
2022-12-17T05:19:04.000Z,-4.44
2022-12-17T05:20:04.000Z,-4.34
2022-12-17T05:21:04.000Z,-4.37
2022-12-17T05:22:04.000Z,-4.31
2022-12-17T05:23:04.000Z,-4.31
2022-12-17T05:24:04.000Z,-4.26
2022-12-17T05:25:04.000Z,-4.28
2022-12-17T05:26:04.000Z,-4.20
2022-12-17T05:27:04.000Z,-4.20
2022-12-17T05:28:04.000Z,-4.22
2022-12-17T05:29:04.000Z,-4.17
2022-12-17T05:30:04.000Z,-4.15
2022-12-17T05:31:04.000Z,-4.16
2022-12-17T05:32:04.000Z,-4.13
2022-12-17T05:33:04.000Z,-4.13
2022-12-17T05:34:04.000Z,-4.10
2022-12-17T05:35:04.000Z,-4.04
2022-12-17T05:36:04.000Z,-4.02
2022-12-17T05:37:04.000Z,-4.04
2022-12-17T05:38:04.000Z,-4.04
2022-12-17T05:39:04.000Z,-4.01
2022-12-17T05:40:04.000Z,-3.98
2022-12-17T05:41:04.000Z,-3.94
2022-12-17T05:42:04.000Z,-3.92
2022-12-17T05:43:04.000Z,-3.92
2022-12-17T05:44:04.000Z,-3.89
2022-12-17T05:45:04.000Z,-3.89
2022-12-17T05:46:04.000Z,-3.92
2022-12-17T05:47:04.000Z,-3.89
2022-12-17T05:48:04.000Z,-3.91
2022-12-17T05:49:04.000Z,-3.86
2022-12-17T05:50:04.000Z,-3.88
2022-12-17T05:51:04.000Z,-3.86
2022-12-17T05:52:04.000Z,-3.86
2022-12-17T05:53:04.000Z,-3.80
2022-12-17T05:54:04.000Z,-3.77
2022-12-17T05:55:04.000Z,-3.81
2022-12-17T05:56:04.000Z,-3.79
2022-12-17T05:57:04.000Z,-3.74
2022-12-17T05:58:04.000Z,-3.79
2022-12-17T05:59:04.000Z,-3.79
2022-12-17T06:00:04.000Z,-3.76
2022-12-17T06:01:04.000Z,-3.72
2022-12-17T06:02:04.000Z,-3.74
2022-12-17T06:03:04.000Z,-3.74
2022-12-17T06:04:04.000Z,-3.76
2022-12-17T06:05:04.000Z,-3.72
2022-12-17T06:06:04.000Z,-3.64
2022-12-17T06:07:04.000Z,-3.65
2022-12-17T06:08:04.000Z,-3.64
2022-12-17T06:09:04.000Z,-3.62
2022-12-17T06:10:04.000Z,-3.62
2022-12-17T06:11:04.000Z,-3.58
2022-12-17T06:12:04.000Z,-3.62
2022-12-17T06:13:04.000Z,-3.58
2022-12-17T06:14:04.000Z,-3.54
2022-12-17T06:15:04.000Z,-3.55
2022-12-17T06:16:04.000Z,-3.51
2022-12-17T06:17:04.000Z,-3.54
2022-12-17T06:18:04.000Z,-3.54
2022-12-17T06:19:04.000Z,-3.51
2022-12-17T06:20:04.000Z,-3.49
2022-12-17T06:21:04.000Z,-3.47
2022-12-17T06:22:04.000Z,-3.46
2022-12-17T06:23:04.000Z,-3.43
2022-12-17T06:24:04.000Z,-3.41
2022-12-17T06:25:04.000Z,-3.39
2022-12-17T06:26:04.000Z,-3.43
2022-12-17T06:27:04.000Z,-3.43
2022-12-17T06:28:04.000Z,-3.36
2022-12-17T06:29:04.000Z,-3.40
2022-12-17T06:30:04.000Z,-3.40
2022-12-17T06:31:04.000Z,-3.37
2022-12-17T06:32:04.000Z,-3.39
2022-12-17T06:33:04.000Z,-3.36
2022-12-17T06:34:04.000Z,-3.33
2022-12-17T06:35:04.000Z,-3.28
2022-12-17T06:36:04.000Z,-3.28
2022-12-17T06:37:04.000Z,-3.28
2022-12-17T06:38:04.000Z,-3.31
2022-12-17T06:39:04.000Z,-3.22
2022-12-17T06:40:04.000Z,-3.26
2022-12-17T06:41:04.000Z,-3.22
2022-12-17T06:42:04.000Z,-3.23
2022-12-17T06:43:04.000Z,-3.23
2022-12-17T06:44:03.000Z,-3.21
2022-12-17T06:45:03.000Z,-3.18
2022-12-17T06:46:03.000Z,-3.19
2022-12-17T06:47:03.000Z,-3.18
2022-12-17T06:48:03.000Z,-3.16
2022-12-17T06:49:03.000Z,-3.15
2022-12-17T06:50:03.000Z,-3.16
2022-12-17T06:51:03.000Z,-3.13
2022-12-17T06:52:03.000Z,-3.16
2022-12-17T06:53:03.000Z,-3.15
2022-12-17T06:54:03.000Z,-3.18
2022-12-17T06:55:03.000Z,-3.10
2022-12-17T06:56:03.000Z,-3.07
2022-12-17T06:57:03.000Z,-3.13
2022-12-17T06:58:03.000Z,-3.12
2022-12-17T06:59:03.000Z,-3.13
2022-12-17T07:00:03.000Z,-3.13
2022-12-17T07:01:03.000Z,-3.12
2022-12-17T07:02:03.000Z,-3.08
2022-12-17T07:03:03.000Z,-3.05
2022-12-17T07:04:03.000Z,-3.08
2022-12-17T07:05:03.000Z,-3.08
2022-12-17T07:06:03.000Z,-3.02
2022-12-17T07:07:03.000Z,-3.08
2022-12-17T07:08:03.000Z,-3.05
2022-12-17T07:09:03.000Z,-3.05
2022-12-17T07:10:03.000Z,-3.04
2022-12-17T07:11:03.000Z,-3.10
2022-12-17T07:12:03.000Z,-3.10
2022-12-17T07:13:03.000Z,-3.10
2022-12-17T07:14:03.000Z,-3.07
2022-12-17T07:15:03.000Z,-3.04
2022-12-17T07:16:03.000Z,-3.05
2022-12-17T07:17:03.000Z,-3.02
2022-12-17T07:18:03.000Z,-3.05
2022-12-17T07:19:03.000Z,-3.04
2022-12-17T07:20:03.000Z,-3.04
2022-12-17T07:21:03.000Z,-3.04
2022-12-17T07:22:03.000Z,-3.01
2022-12-17T07:23:03.000Z,-3.00
2022-12-17T07:24:03.000Z,-3.07
2022-12-17T07:25:03.000Z,-3.02
2022-12-17T07:26:03.000Z,-3.01
2022-12-17T07:27:03.000Z,-3.04
2022-12-17T07:28:03.000Z,-3.00
2022-12-17T07:29:03.000Z,-3.01
2022-12-17T07:30:03.000Z,-3.01
2022-12-17T07:31:03.000Z,-3.05
2022-12-17T07:32:03.000Z,-3.00
2022-12-17T07:33:03.000Z,-3.01
2022-12-17T07:34:03.000Z,-3.04
2022-12-17T07:35:03.000Z,-2.98
2022-12-17T07:36:03.000Z,-2.98
2022-12-17T07:37:03.000Z,-2.98
2022-12-17T07:38:03.000Z,-2.97
2022-12-17T07:39:03.000Z,-3.02
2022-12-17T07:40:03.000Z,-2.98
2022-12-17T07:41:03.000Z,-2.95
2022-12-17T07:42:03.000Z,-2.97
2022-12-17T07:43:03.000Z,-3.00
2022-12-17T07:44:03.000Z,-2.97
2022-12-17T07:45:03.000Z,-2.95
2022-12-17T07:46:03.000Z,-2.94
2022-12-17T07:47:03.000Z,-2.93
2022-12-17T07:48:03.000Z,-2.94
2022-12-17T07:49:03.000Z,-2.94
2022-12-17T07:50:03.000Z,-2.97
2022-12-17T07:51:03.000Z,-2.90
2022-12-17T07:52:03.000Z,-2.90
2022-12-17T07:53:03.000Z,-2.95
2022-12-17T07:54:03.000Z,-2.94
2022-12-17T07:55:03.000Z,-2.94
2022-12-17T07:56:03.000Z,-2.93
2022-12-17T07:57:03.000Z,-2.87
2022-12-17T07:58:03.000Z,-2.87
2022-12-17T07:59:03.000Z,-2.90
2022-12-17T08:00:03.000Z,-2.84
2022-12-17T08:01:03.000Z,-2.80
2022-12-17T08:02:03.000Z,-2.84
2022-12-17T08:03:03.000Z,-2.83
2022-12-17T08:04:03.000Z,-2.76
2022-12-17T08:05:03.000Z,-2.72
2022-12-17T08:06:03.000Z,-2.72
2022-12-17T08:07:03.000Z,-2.72
2022-12-17T08:08:03.000Z,-2.68
2022-12-17T08:09:03.000Z,-2.69
2022-12-17T08:10:03.000Z,-2.71
2022-12-17T08:11:03.000Z,-2.68
2022-12-17T08:12:03.000Z,-2.65
2022-12-17T08:13:03.000Z,-2.69
2022-12-17T08:14:03.000Z,-2.64
2022-12-17T08:15:03.000Z,-2.65
2022-12-17T08:16:03.000Z,-2.62
2022-12-17T08:17:03.000Z,-2.65
2022-12-17T08:18:03.000Z,-2.66
2022-12-17T08:19:03.000Z,-2.65
2022-12-17T08:20:03.000Z,-2.61
2022-12-17T08:21:03.000Z,-2.59
2022-12-17T08:22:03.000Z,-2.61
2022-12-17T08:23:03.000Z,-2.58
2022-12-17T08:24:03.000Z,-2.59
2022-12-17T08:25:03.000Z,-2.50
2022-12-17T08:26:03.000Z,-2.53
2022-12-17T08:27:03.000Z,-2.53
2022-12-17T08:28:03.000Z,-2.58
2022-12-17T08:29:03.000Z,-2.59
2022-12-17T08:30:03.000Z,-2.59
2022-12-17T08:31:03.000Z,-2.53
2022-12-17T08:32:03.000Z,-2.53
2022-12-17T08:33:03.000Z,-2.50
2022-12-17T08:34:03.000Z,-2.53
2022-12-17T08:35:03.000Z,-2.55
2022-12-17T08:36:03.000Z,-2.51
2022-12-17T08:37:02.000Z,-2.53
2022-12-17T08:38:02.000Z,-2.47
2022-12-17T08:39:02.000Z,-2.48
2022-12-17T08:40:02.000Z,-2.50
2022-12-17T08:41:02.000Z,-2.51
2022-12-17T08:42:02.000Z,-2.51
2022-12-17T08:43:02.000Z,-2.47
2022-12-17T08:44:02.000Z,-2.44
2022-12-17T08:45:02.000Z,-2.47
2022-12-17T08:46:02.000Z,-2.44
2022-12-17T08:47:02.000Z,-2.41
2022-12-17T08:48:02.000Z,-2.40
2022-12-17T08:49:02.000Z,-2.38
2022-12-17T08:50:02.000Z,-2.41
2022-12-17T08:51:02.000Z,-2.32
2022-12-17T08:52:02.000Z,-2.35
2022-12-17T08:53:02.000Z,-2.29
2022-12-17T08:54:02.000Z,-2.29
2022-12-17T08:55:02.000Z,-2.26
2022-12-17T08:56:02.000Z,-2.28
2022-12-17T08:57:02.000Z,-2.24
2022-12-17T08:58:02.000Z,-2.29
2022-12-17T08:59:02.000Z,-2.26
2022-12-17T09:00:02.000Z,-2.28
2022-12-17T09:01:02.000Z,-2.24
2022-12-17T09:02:02.000Z,-2.16
2022-12-17T09:03:02.000Z,-2.18
2022-12-17T09:04:02.000Z,-2.19
2022-12-17T09:05:02.000Z,-2.16
2022-12-17T09:06:02.000Z,-2.16
2022-12-17T09:07:02.000Z,-2.14
2022-12-17T09:08:02.000Z,-2.11
2022-12-17T09:09:02.000Z,-2.07
2022-12-17T09:10:02.000Z,-2.13
2022-12-17T09:11:02.000Z,-2.11
2022-12-17T09:12:02.000Z,-2.06
2022-12-17T09:13:02.000Z,-2.06
2022-12-17T09:14:02.000Z,-2.06
2022-12-17T09:15:02.000Z,-2.04
2022-12-17T09:16:02.000Z,-2.00
2022-12-17T09:17:02.000Z,-1.95
2022-12-17T09:18:02.000Z,-1.96
2022-12-17T09:19:02.000Z,-2.01
2022-12-17T09:20:02.000Z,-1.92
2022-12-17T09:21:02.000Z,-1.93
2022-12-17T09:22:02.000Z,-1.93
2022-12-17T09:23:02.000Z,-1.95
2022-12-17T09:24:02.000Z,-1.89
2022-12-17T09:25:02.000Z,-1.96
2022-12-17T09:26:02.000Z,-1.93
2022-12-17T09:27:02.000Z,-1.92
2022-12-17T09:28:02.000Z,-1.89
2022-12-17T09:29:02.000Z,-1.90
2022-12-17T09:30:02.000Z,-1.92
2022-12-17T09:31:02.000Z,-1.89
2022-12-17T09:32:02.000Z,-1.92
2022-12-17T09:33:02.000Z,-1.88
2022-12-17T09:34:02.000Z,-1.88
2022-12-17T09:35:02.000Z,-1.83
2022-12-17T09:36:02.000Z,-1.85
2022-12-17T09:37:02.000Z,-1.78
2022-12-17T09:38:02.000Z,-1.85
2022-12-17T09:39:02.000Z,-1.85
2022-12-17T09:40:02.000Z,-1.80
2022-12-17T09:41:02.000Z,-1.80
2022-12-17T09:42:02.000Z,-1.83
2022-12-17T09:43:02.000Z,-1.85
2022-12-17T09:44:02.000Z,-1.86
2022-12-17T09:45:02.000Z,-1.82
2022-12-17T09:46:02.000Z,-1.80
2022-12-17T09:47:02.000Z,-1.80
2022-12-17T09:48:02.000Z,-1.83
2022-12-17T09:49:02.000Z,-1.78
2022-12-17T09:50:02.000Z,-1.83
2022-12-17T09:51:02.000Z,-1.75
2022-12-17T09:52:02.000Z,-1.77
2022-12-17T09:53:02.000Z,-1.78
2022-12-17T09:54:02.000Z,-1.78
2022-12-17T09:55:02.000Z,-1.78
2022-12-17T09:56:02.000Z,-1.75
2022-12-17T09:57:02.000Z,-1.74
2022-12-17T09:58:02.000Z,-1.74
2022-12-17T09:59:02.000Z,-1.75
2022-12-17T10:00:02.000Z,-1.78
2022-12-17T10:01:02.000Z,-1.71
2022-12-17T10:02:02.000Z,-1.75
2022-12-17T10:03:02.000Z,-1.75
2022-12-17T10:04:02.000Z,-1.75
2022-12-17T10:05:02.000Z,-1.75
2022-12-17T10:06:02.000Z,-1.74
2022-12-17T10:07:02.000Z,-1.72
2022-12-17T10:08:02.000Z,-1.67
2022-12-17T10:09:02.000Z,-1.64
2022-12-17T10:10:02.000Z,-1.64
2022-12-17T10:11:02.000Z,-1.67
2022-12-17T10:12:02.000Z,-1.57
2022-12-17T10:13:02.000Z,-1.61
2022-12-17T10:14:02.000Z,-1.54
2022-12-17T10:15:02.000Z,-1.57
2022-12-17T10:16:02.000Z,-1.57
2022-12-17T10:17:02.000Z,-1.59
2022-12-17T10:18:02.000Z,-1.56
2022-12-17T10:19:02.000Z,-1.54
2022-12-17T10:19:02.000Z,-1.54
2022-12-17T10:20:02.000Z,-1.59
2022-12-17T10:20:02.000Z,-1.59
2022-12-17T10:21:02.000Z,-1.61
2022-12-17T10:21:02.000Z,-1.61
2022-12-17T10:22:02.000Z,-1.54
2022-12-17T10:22:02.000Z,-1.54
2022-12-17T10:23:02.000Z,-1.53
2022-12-17T10:23:02.000Z,-1.53
2022-12-17T10:24:02.000Z,-1.54
2022-12-17T10:25:02.000Z,-1.53
2022-12-17T10:26:02.000Z,-1.51
2022-12-17T10:27:02.000Z,-1.54
2022-12-17T10:28:01.000Z,-1.51
2022-12-17T10:29:01.000Z,-1.54
2022-12-17T10:30:01.000Z,-1.59
2022-12-17T10:31:01.000Z,-1.56
2022-12-17T10:32:01.000Z,-1.51
2022-12-17T10:33:01.000Z,-1.53
2022-12-17T10:34:01.000Z,-1.54
2022-12-17T10:35:01.000Z,-1.53
2022-12-17T10:36:01.000Z,-1.56
2022-12-17T10:37:01.000Z,-1.50
2022-12-17T10:38:01.000Z,-1.54
2022-12-17T10:39:01.000Z,-1.54
2022-12-17T10:40:01.000Z,-1.51
2022-12-17T10:41:01.000Z,-1.49
2022-12-17T10:42:01.000Z,-1.51
2022-12-17T10:43:01.000Z,-1.49
2022-12-17T10:44:01.000Z,-1.51
2022-12-17T10:45:01.000Z,-1.50
2022-12-17T10:46:01.000Z,-1.47
2022-12-17T10:47:01.000Z,-1.56
2022-12-17T10:48:01.000Z,-1.54
2022-12-17T10:49:01.000Z,-1.54
2022-12-17T10:50:01.000Z,-1.50
2022-12-17T10:51:01.000Z,-1.56
2022-12-17T10:52:01.000Z,-1.51
2022-12-17T10:53:01.000Z,-1.54
2022-12-17T10:54:01.000Z,-1.50
2022-12-17T10:55:01.000Z,-1.51
2022-12-17T10:56:01.000Z,-1.51
2022-12-17T10:57:01.000Z,-1.49
2022-12-17T10:58:01.000Z,-1.47
2022-12-17T10:59:01.000Z,-1.46
2022-12-17T11:00:01.000Z,-1.49
2022-12-17T11:01:01.000Z,-1.47
2022-12-17T11:02:01.000Z,-1.44
2022-12-17T11:03:01.000Z,-1.44
2022-12-17T11:04:01.000Z,-1.43
2022-12-17T11:05:01.000Z,-1.39
2022-12-17T11:06:01.000Z,-1.43
2022-12-17T11:07:01.000Z,-1.39
2022-12-17T11:08:01.000Z,-1.39
2022-12-17T11:09:01.000Z,-1.39
2022-12-17T11:10:01.000Z,-1.36
2022-12-17T11:11:01.000Z,-1.39
2022-12-17T11:12:01.000Z,-1.46
2022-12-17T11:13:01.000Z,-1.47
2022-12-17T11:14:01.000Z,-1.41
2022-12-17T11:15:01.000Z,-1.49
2022-12-17T11:16:01.000Z,-1.47
2022-12-17T11:17:01.000Z,-1.47
2022-12-17T11:18:01.000Z,-1.50
2022-12-17T11:19:01.000Z,-1.50
2022-12-17T11:20:01.000Z,-1.50
2022-12-17T11:21:01.000Z,-1.50
2022-12-17T11:22:01.000Z,-1.50
2022-12-17T11:23:01.000Z,-1.56
2022-12-17T11:24:01.000Z,-1.59
2022-12-17T11:25:01.000Z,-1.57
2022-12-17T11:26:01.000Z,-1.57
2022-12-17T11:27:01.000Z,-1.61
2022-12-17T11:28:01.000Z,-1.59
2022-12-17T11:29:01.000Z,-1.61
2022-12-17T11:30:01.000Z,-1.56
2022-12-17T11:31:01.000Z,-1.57
2022-12-17T11:32:01.000Z,-1.57
2022-12-17T11:33:01.000Z,-1.62
2022-12-17T11:34:01.000Z,-1.59
2022-12-17T11:35:01.000Z,-1.67
2022-12-17T11:36:01.000Z,-1.62
2022-12-17T11:37:01.000Z,-1.68
2022-12-17T11:38:01.000Z,-1.65
2022-12-17T11:39:01.000Z,-1.67
2022-12-17T11:40:01.000Z,-1.68
2022-12-17T11:41:01.000Z,-1.67
2022-12-17T11:42:01.000Z,-1.70
2022-12-17T11:43:01.000Z,-1.67
2022-12-17T11:44:01.000Z,-1.72
2022-12-17T11:45:01.000Z,-1.70
2022-12-17T11:46:01.000Z,-1.77
2022-12-17T11:47:01.000Z,-1.72
2022-12-17T11:48:01.000Z,-1.71
2022-12-17T11:49:01.000Z,-1.70
2022-12-17T11:50:01.000Z,-1.77
2022-12-17T11:51:01.000Z,-1.77
2022-12-17T11:52:01.000Z,-1.72
2022-12-17T11:53:01.000Z,-1.75
2022-12-17T11:54:01.000Z,-1.74
2022-12-17T11:55:01.000Z,-1.80
2022-12-17T11:56:01.000Z,-1.82
2022-12-17T11:57:01.000Z,-1.85
2022-12-17T11:58:01.000Z,-1.83
2022-12-17T11:59:01.000Z,-1.80
2022-12-17T12:00:01.000Z,-1.80
2022-12-17T12:01:01.000Z,-1.85
2022-12-17T12:02:01.000Z,-1.83
2022-12-17T12:03:01.000Z,-1.83
2022-12-17T12:04:01.000Z,-1.83
2022-12-17T12:05:01.000Z,-1.86
2022-12-17T12:06:01.000Z,-1.86
2022-12-17T12:07:01.000Z,-1.95
2022-12-17T12:08:01.000Z,-1.95
2022-12-17T12:09:01.000Z,-1.92
2022-12-17T12:10:01.000Z,-1.93
2022-12-17T12:11:01.000Z,-1.90
2022-12-17T12:12:01.000Z,-1.92
2022-12-17T12:13:01.000Z,-1.93
2022-12-17T12:14:01.000Z,-1.93
2022-12-17T12:15:01.000Z,-1.98
2022-12-17T12:16:01.000Z,-1.98
2022-12-17T12:17:01.000Z,-2.00
2022-12-17T12:18:00.000Z,-1.98
2022-12-17T12:19:00.000Z,-1.92
2022-12-17T12:20:00.000Z,-1.96
2022-12-17T12:21:00.000Z,-1.96
2022-12-17T12:22:00.000Z,-1.98
2022-12-17T12:23:00.000Z,-1.92
2022-12-17T12:24:00.000Z,-1.90
2022-12-17T12:25:00.000Z,-1.90
2022-12-17T12:26:00.000Z,-1.90
2022-12-17T12:27:00.000Z,-1.89
2022-12-17T12:28:00.000Z,-1.85
2022-12-17T12:29:00.000Z,-1.82
2022-12-17T12:30:00.000Z,-1.82
2022-12-17T12:31:00.000Z,-1.88
2022-12-17T12:32:00.000Z,-1.88
2022-12-17T12:33:00.000Z,-1.83
2022-12-17T12:34:00.000Z,-1.89
2022-12-17T12:35:00.000Z,-1.83
2022-12-17T12:36:00.000Z,-1.86
2022-12-17T12:37:00.000Z,-1.90
2022-12-17T12:38:00.000Z,-1.88
2022-12-17T12:39:00.000Z,-1.92
2022-12-17T12:40:00.000Z,-1.92
2022-12-17T12:41:00.000Z,-1.90
2022-12-17T12:42:00.000Z,-1.88
2022-12-17T12:43:00.000Z,-1.92
2022-12-17T12:44:00.000Z,-1.88
2022-12-17T12:45:00.000Z,-1.92
2022-12-17T12:46:00.000Z,-1.92
2022-12-17T12:47:00.000Z,-1.92